Time;durP1;ratioP1;P1;durP2;ratioP2;P2;SDS_P1;SDS_P2;PMS_P1;PMS_P2;Temp;Humidity;BMP_temperature;BMP_pressure;BME280_temperature;BME280_humidity;BME280_pressure;Samples;Min_cycle;Max_cycle;Signal;HPM_P1;HPM_P2
2022/12/09 00:00:00;;;;;;;72.45;32.53;;;;;;;7.85;100.00;100596.75;5031334;28;20037;-75
2022/12/09 00:02:27;;;;;;;79.35;33.47;;;;;;;8.00;100.00;100598.31;5030981;28;20044;-75
2022/12/09 00:04:53;;;;;;;83.55;34.60;;;;;;;7.99;100.00;100597.44;5031770;28;20040;-75
2022/12/09 00:07:18;;;;;;;71.80;33.20;;;;;;;7.96;100.00;100587.00;5030493;28;20030;-75
2022/12/09 00:09:44;;;;;;;76.72;34.92;;;;;;;8.12;100.00;100588.63;5031698;28;20027;-75
2022/12/09 00:12:09;;;;;;;74.45;33.60;;;;;;;8.16;100.00;100577.69;5031950;28;20067;-75
2022/12/09 00:14:35;;;;;;;73.05;34.08;;;;;;;8.17;100.00;100571.72;5031438;28;20478;-75
2022/12/09 00:17:00;;;;;;;76.07;35.40;;;;;;;8.03;100.00;100541.91;5031830;28;20486;-75
2022/12/09 00:19:26;;;;;;;72.43;32.63;;;;;;;8.26;100.00;100561.00;5031518;28;20404;-75
2022/12/09 00:21:51;;;;;;;77.03;35.65;;;;;;;8.30;100.00;100564.59;5031198;28;20404;-75
2022/12/09 00:24:16;;;;;;;75.63;34.75;;;;;;;8.35;100.00;100568.25;5031433;28;20026;-75
2022/12/09 00:26:42;;;;;;;81.15;34.08;;;;;;;8.32;100.00;100571.56;5031344;28;20038;-75
2022/12/09 00:29:09;;;;;;;87.47;35.55;;;;;;;8.28;100.00;100576.53;5031147;28;20450;-75
2022/12/09 00:31:37;;;;;;;75.45;35.47;;;;;;;8.26;100.00;100579.00;5031344;28;20136;-75
2022/12/09 00:34:09;;;;;;;83.15;36.38;;;;;;;8.09;100.00;100588.50;5031216;28;20072;-75
2022/12/09 00:36:35;;;;;;;82.63;35.67;;;;;;;7.81;100.00;100578.53;5030894;28;20061;-74
2022/12/09 00:39:00;;;;;;;81.63;36.05;;;;;;;7.75;100.00;100595.41;5031030;28;20089;-75
2022/12/09 00:41:27;;;;;;;89.50;35.78;;;;;;;7.61;100.00;100594.72;5031210;28;20108;-75
2022/12/09 00:43:53;;;;;;;87.03;36.33;;;;;;;7.59;100.00;100600.59;5031276;28;20040;-75
2022/12/09 00:46:19;;;;;;;77.10;33.28;;;;;;;7.50;100.00;100590.72;5031066;28;20029;-75
2022/12/09 00:48:45;;;;;;;82.22;35.38;;;;;;;7.52;100.00;100604.50;5030895;28;20080;-75
2022/12/09 00:51:19;;;;;;;78.20;34.10;;;;;;;7.60;100.00;100600.66;5030931;28;20033;-75
2022/12/09 00:53:46;;;;;;;80.63;34.38;;;;;;;7.57;100.00;100607.31;5030652;28;20041;-75
2022/12/09 00:56:12;;;;;;;80.85;32.05;;;;;;;7.34;100.00;100608.69;5031117;28;20041;-74
2022/12/09 00:58:37;;;;;;;76.40;32.80;;;;;;;7.25;100.00;100594.59;5030960;28;20032;-74
2022/12/09 01:01:04;;;;;;;79.93;31.25;;;;;;;7.26;100.00;100604.06;5029474;28;20034;-74
2022/12/09 01:03:30;;;;;;;74.45;31.50;;;;;;;7.16;100.00;100593.22;5030840;28;20567;-74
2022/12/09 01:05:55;;;;;;;85.35;33.95;;;;;;;7.22;100.00;100583.28;5031043;28;20028;-75
2022/12/09 01:08:21;;;;;;;83.03;34.30;;;;;;;7.35;100.00;100590.81;5030853;28;20032;-74
2022/12/09 01:10:47;;;;;;;78.70;34.50;;;;;;;7.29;100.00;100596.50;5012031;28;20076;-75
2022/12/09 01:13:15;;;;;;;83.35;35.00;;;;;;;7.42;100.00;100599.72;5032437;28;20065;-75
2022/12/09 01:15:41;;;;;;;76.75;32.63;;;;;;;7.35;100.00;100601.09;5034538;28;20052;-75
2022/12/09 01:18:07;;;;;;;78.28;34.92;;;;;;;7.11;100.00;100580.13;5034882;28;20029;-75
2022/12/09 01:20:36;;;;;;;78.45;35.53;;;;;;;7.34;100.00;100596.75;5034704;28;20052;-75
2022/12/09 01:23:01;;;;;;;83.03;35.15;;;;;;;7.32;100.00;100574.38;5034893;28;20037;-75
2022/12/09 01:25:27;;;;;;;86.70;35.40;;;;;;;7.46;100.00;100588.78;5034561;28;20412;-75
2022/12/09 01:27:52;;;;;;;97.20;34.53;;;;;;;7.49;100.00;100573.53;5034382;28;20056;-75
2022/12/09 01:30:18;;;;;;;89.68;35.08;;;;;;;7.31;100.00;100536.63;5034569;28;20407;-75
2022/12/09 01:32:45;;;;;;;83.00;33.95;;;;;;;7.65;100.00;100595.75;5034652;28;20026;-75
2022/12/09 01:35:11;;;;;;;84.25;33.30;;;;;;;7.73;100.00;100597.00;5033142;28;20034;-75
2022/12/09 01:37:36;;;;;;;84.82;34.47;;;;;;;7.77;100.00;100598.91;5034620;28;20029;-75
2022/12/09 01:40:08;;;;;;;92.90;35.28;;;;;;;7.77;100.00;100585.19;5033810;28;20065;-75
2022/12/09 01:42:34;;;;;;;78.15;34.33;;;;;;;7.92;100.00;100596.25;5034562;28;20029;-75
2022/12/09 01:45:22;;;;;;;80.95;33.67;;;;;;;7.98;100.00;100579.38;5034180;28;20399;-75
2022/12/09 01:47:53;;;;;;;78.05;33.67;;;;;;;8.01;100.00;100598.41;5034380;28;20064;-75
2022/12/09 01:50:19;;;;;;;76.90;33.35;;;;;;;7.93;100.00;100587.72;5033855;28;20030;-75
2022/12/09 01:52:47;;;;;;;73.10;33.28;;;;;;;8.02;100.00;100607.00;5034082;28;20029;-75
2022/12/09 01:55:12;;;;;;;77.03;33.60;;;;;;;7.85;100.00;100571.06;5034112;28;20037;-75
2022/12/09 01:57:38;;;;;;;89.78;35.92;;;;;;;7.86;100.00;100564.22;5034241;28;20037;-75
2022/12/09 02:00:05;;;;;;;79.20;34.40;;;;;;;8.00;100.00;100601.78;5033518;28;20104;-75
2022/12/09 02:02:31;;;;;;;75.47;33.42;;;;;;;8.02;100.00;100596.69;5033929;28;20036;-75
2022/12/09 02:04:57;;;;;;;85.15;35.28;;;;;;;8.00;100.00;100596.63;5034153;28;20514;-75
2022/12/09 02:07:23;;;;;;;84.82;34.50;;;;;;;8.00;100.00;100599.22;5034048;28;20033;-75
2022/12/09 02:09:52;;;;;;;87.25;35.80;;;;;;;7.96;100.00;100591.25;5034137;28;20083;-75
2022/12/09 02:12:44;;;;;;;88.10;36.43;;;;;;;7.84;100.00;100565.81;5033850;28;20464;-75
2022/12/09 02:15:46;;;;;;;85.97;35.58;;;;;;;8.04;100.00;100592.53;5033931;28;20036;-75
2022/12/09 02:18:39;;;;;;;77.00;33.80;;;;;;;8.03;100.00;100583.91;5011343;28;20049;-75
2022/12/09 02:21:20;;;;;;;79.40;34.85;;;;;;;7.66;100.00;100560.66;4933637;29;20137;-75
2022/12/09 02:23:53;;;;;;;92.93;35.08;;;;;;;7.90;100.00;100592.72;4917477;29;20127;-75
2022/12/09 02:26:34;;;;;;;79.85;34.25;;;;;;;7.93;100.00;100602.28;4933609;29;20090;-75
2022/12/09 02:29:08;;;;;;;82.30;33.83;;;;;;;8.04;100.00;100610.53;4933466;29;20071;-75
2022/12/09 02:31:42;;;;;;;77.63;34.17;;;;;;;8.09;100.00;100616.78;4933411;29;20036;-75
2022/12/09 02:34:18;;;;;;;86.10;35.22;;;;;;;7.90;100.00;100610.72;4933425;29;20063;-75
2022/12/09 02:37:05;;;;;;;82.55;33.15;;;;;;;7.93;100.00;100603.16;4933580;29;20075;-75
2022/12/09 02:39:51;;;;;;;79.50;33.42;;;;;;;7.71;100.00;100560.09;4933273;29;20066;-75
2022/12/09 02:42:21;;;;;;;92.35;35.67;;;;;;;7.94;100.00;100599.78;4933275;29;20594;-75
2022/12/09 02:44:49;;;;;;;88.43;36.35;;;;;;;7.99;100.00;100601.69;4933519;29;20083;-75
2022/12/09 02:47:19;;;;;;;100.53;36.83;;;;;;;7.90;100.00;100603.00;4933332;29;20032;-75
2022/12/09 02:49:50;;;;;;;76.72;33.67;;;;;;;7.84;100.00;100596.66;4933282;29;20163;-74
2022/12/09 02:52:18;;;;;;;86.50;37.28;;;;;;;7.82;100.00;100598.28;4933126;29;20052;-75
2022/12/09 02:54:43;;;;;;;86.47;37.45;;;;;;;7.82;100.00;100609.44;4967441;28;20070;-74
2022/12/09 02:57:17;;;;;;;82.22;36.45;;;;;;;7.79;100.00;100591.31;4979325;28;20058;-74
2022/12/09 02:59:43;;;;;;;86.55;36.65;;;;;;;7.64;100.00;100555.44;5032658;28;20108;-74
2022/12/09 03:02:14;;;;;;;91.53;36.70;;;;;;;7.65;100.00;100556.31;5032859;28;20113;-74
2022/12/09 03:04:46;;;;;;;86.32;36.83;;;;;;;7.82;100.00;100572.59;5033038;28;20022;-74
2022/12/09 03:07:18;;;;;;;92.10;35.90;;;;;;;7.81;100.00;100576.81;5032625;28;20108;-74
2022/12/09 03:09:46;;;;;;;79.07;35.95;;;;;;;7.81;100.00;100575.97;5032941;28;20017;-74
2022/12/09 03:12:17;;;;;;;87.03;36.35;;;;;;;7.82;100.00;100570.03;5032793;28;20029;-74
2022/12/09 03:14:51;;;;;;;82.10;35.30;;;;;;;7.85;100.00;100568.47;5032627;28;20033;-74
2022/12/09 03:17:30;;;;;;;82.57;36.83;;;;;;;7.88;100.00;100578.91;5032897;28;20025;-74
2022/12/09 03:20:01;;;;;;;88.43;36.67;;;;;;;7.72;100.00;100556.69;5032154;28;20033;-74
2022/12/09 03:22:28;;;;;;;82.68;35.78;;;;;;;7.80;100.00;100581.91;5032240;28;20467;-74
2022/12/09 03:25:03;;;;;;;82.57;35.10;;;;;;;7.81;100.00;100589.69;5032496;28;20079;-74
2022/12/09 03:27:35;;;;;;;75.93;32.90;;;;;;;7.77;100.00;100598.91;5032175;28;20108;-74
2022/12/09 03:30:02;;;;;;;82.43;34.92;;;;;;;7.63;100.00;100596.47;5032533;28;20025;-75
2022/12/09 03:32:29;;;;;;;99.45;36.55;;;;;;;7.67;100.00;100599.28;5032495;28;20473;-75
2022/12/09 03:35:02;;;;;;;80.25;33.88;;;;;;;7.58;100.00;100589.41;5032164;28;20025;-73
2022/12/09 03:37:29;;;;;;;86.93;34.65;;;;;;;7.52;100.00;100583.97;5032308;28;20488;-75
2022/12/09 03:39:57;;;;;;;82.85;35.40;;;;;;;7.55;100.00;100602.13;5032171;28;20049;-74
2022/12/09 03:42:29;;;;;;;78.13;34.72;;;;;;;7.41;100.00;100561.97;5032156;28;20025;-74
2022/12/09 03:44:59;;;;;;;77.07;34.80;;;;;;;7.68;100.00;100601.03;5032059;28;20121;-74
2022/12/09 03:47:25;;;;;;;81.53;33.60;;;;;;;7.69;100.00;100601.91;5032042;28;20053;-73
2022/12/09 03:49:51;;;;;;;79.63;33.13;;;;;;;7.71;100.00;100602.88;5032081;28;20030;-73
2022/12/09 03:52:56;;;;;;;88.55;35.67;;;;;;;7.68;100.00;100606.19;5031687;28;20021;-73
2022/12/09 03:55:38;;;;;;;79.80;34.40;;;;;;;7.73;100.00;100604.72;4989922;28;20038;-73
2022/12/09 03:58:05;;;;;;;80.22;34.33;;;;;;;7.34;100.00;100550.53;4989974;28;20042;-74
2022/12/09 04:00:35;;;;;;;85.65;35.72;;;;;;;7.71;100.00;100613.16;4973786;28;20428;-73
2022/12/09 04:03:01;;;;;;;73.82;32.60;;;;;;;7.75;100.00;100615.97;4973764;28;20038;-74
2022/12/09 04:05:26;;;;;;;76.55;31.45;;;;;;;7.80;100.00;100608.50;4989851;28;20134;-73
2022/12/09 04:07:52;;;;;;;74.68;32.20;;;;;;;7.64;100.00;100581.13;4989643;28;20030;-73
2022/12/09 04:10:17;;;;;;;69.80;32.15;;;;;;;7.78;100.00;100617.81;4989752;28;20050;-71
2022/12/09 04:12:43;;;;;;;76.72;30.88;;;;;;;7.76;100.00;100629.69;4989624;28;20026;-72
2022/12/09 04:15:09;;;;;;;76.78;33.90;;;;;;;7.75;100.00;100633.97;4989624;28;20026;-71
2022/12/09 04:17:35;;;;;;;69.78;29.38;;;;;;;7.65;100.00;100615.41;4989452;28;20034;-72
2022/12/09 04:20:00;;;;;;;66.38;30.05;;;;;;;7.68;100.00;100631.88;4989412;28;20078;-71
2022/12/09 04:22:26;;;;;;;67.88;30.55;;;;;;;7.69;100.00;100633.66;4989418;28;20050;-73
2022/12/09 04:24:51;;;;;;;61.33;28.48;;;;;;;7.66;100.00;100642.88;4989492;28;20042;-72
2022/12/09 04:27:17;;;;;;;72.60;29.30;;;;;;;7.59;100.00;100640.00;4989525;28;20414;-72
2022/12/09 04:29:42;;;;;;;73.65;29.10;;;;;;;7.60;100.00;100648.56;5017909;28;20041;-72
2022/12/09 04:32:08;;;;;;;74.70;30.23;;;;;;;7.48;100.00;100632.53;5031231;28;20156;-73
2022/12/09 04:34:33;;;;;;;64.43;28.63;;;;;;;7.59;100.00;100632.28;5031374;28;20034;-78
2022/12/09 04:36:59;;;;;;;69.07;28.23;;;;;;;7.57;100.00;100623.59;5030834;28;20079;-81
2022/12/09 04:39:24;;;;;;;66.72;28.98;;;;;;;7.50;100.00;100606.13;5022655;28;20053;-81
2022/12/09 04:41:49;;;;;;;72.55;28.60;;;;;;;7.64;100.00;100618.78;5030571;28;20072;-75
2022/12/09 04:44:15;;;;;;;68.55;31.40;;;;;;;7.70;100.00;100611.38;5031108;28;20108;-74
2022/12/09 04:46:40;;;;;;;70.78;28.23;;;;;;;7.77;100.00;100614.34;5031094;28;20041;-73
2022/12/09 04:49:06;;;;;;;64.18;29.27;;;;;;;7.75;100.00;100608.25;5030709;28;20021;-74
2022/12/09 04:51:31;;;;;;;60.78;27.85;;;;;;;7.73;100.00;100604.72;5030951;28;20385;-74
2022/12/09 04:53:57;;;;;;;55.63;26.33;;;;;;;7.77;100.00;100616.91;5020977;28;20502;-73
2022/12/09 04:56:23;;;;;;;58.75;24.77;;;;;;;7.78;100.00;100617.81;5010003;28;20049;-73
2022/12/09 04:58:49;;;;;;;53.60;24.88;;;;;;;7.81;100.00;100623.09;5011238;28;20049;-74
2022/12/09 05:01:17;;;;;;;54.13;23.85;;;;;;;7.73;100.00;100599.59;5011138;28;20030;-73
2022/12/09 05:03:43;;;;;;;55.65;24.10;;;;;;;7.84;100.00;100607.84;5011312;28;20034;-75
2022/12/09 05:06:13;;;;;;;57.15;23.58;;;;;;;7.93;100.00;100617.69;5011262;28;20404;-75
2022/12/09 05:08:39;;;;;;;;;;;;;;;7.97;100.00;100623.88;5018107;28;20031;-75
2022/12/09 05:11:04;;;;;;;53.22;23.83;;;;;;;7.99;100.00;100623.16;5024490;28;20376;-75
2022/12/09 05:13:30;;;;;;;44.45;22.35;;;;;;;8.04;100.00;100621.69;5013714;28;20082;-73
2022/12/09 05:16:03;;;;;;;46.95;22.60;;;;;;;8.05;100.00;100618.31;5030245;28;20574;-76
2022/12/09 05:18:28;;;;;;;51.50;23.13;;;;;;;8.02;100.00;100607.00;5016489;28;20025;-78
2022/12/09 05:20:54;;;;;;;50.17;23.05;;;;;;;8.10;100.00;100624.56;5027007;28;20064;-78
2022/12/09 05:23:19;;;;;;;42.75;21.65;;;;;;;8.00;100.00;100614.63;5029929;28;20025;-76
2022/12/09 05:25:45;;;;;;;41.20;19.98;;;;;;;7.79;100.00;100583.59;5030151;28;20376;-77
2022/12/09 05:28:10;;;;;;;51.22;21.45;;;;;;;8.02;100.00;100614.69;5028713;28;20392;-76
2022/12/09 05:30:37;;;;;;;44.60;21.42;;;;;;;7.92;100.00;100609.13;5030170;28;20025;-77
2022/12/09 05:33:02;;;;;;;51.60;23.27;;;;;;;7.82;100.00;100609.44;5029674;28;20541;-76
2022/12/09 05:35:28;;;;;;;45.20;21.25;;;;;;;7.91;100.00;100619.31;5029705;28;20021;-75
2022/12/09 05:37:53;;;;;;;38.53;19.10;;;;;;;7.89;100.00;100606.38;5029782;28;20075;-76
2022/12/09 05:40:19;;;;;;;42.50;20.63;;;;;;;7.68;100.00;100592.47;5028382;28;20045;-76
2022/12/09 05:42:44;;;;;;;45.65;21.42;;;;;;;7.77;100.00;100616.91;5025020;28;20083;-77
2022/12/09 05:45:11;;;;;;;38.92;19.00;;;;;;;7.75;100.00;100625.34;5023648;28;20036;-77
2022/12/09 05:47:37;;;;;;;44.03;20.48;;;;;;;7.75;100.00;100639.09;5021905;28;20057;-75
2022/12/09 05:50:04;;;;;;;42.78;20.02;;;;;;;7.60;100.00;100615.16;5025022;28;20026;-74
2022/12/09 05:52:29;;;;;;;44.75;20.02;;;;;;;7.79;100.00;100637.56;5029672;28;20495;-75
2022/12/09 05:54:55;;;;;;;47.72;20.52;;;;;;;7.85;100.00;100640.47;5029841;28;20060;-75
2022/12/09 05:57:21;;;;;;;44.65;21.50;;;;;;;7.85;100.00;100654.97;5030009;28;20025;-75
2022/12/09 05:59:46;;;;;;;51.33;22.15;;;;;;;7.59;100.00;100605.72;5030824;28;20040;-75
2022/12/09 06:02:12;;;;;;;46.72;21.30;;;;;;;7.80;100.00;100639.34;5033404;28;20022;-75
2022/12/09 06:04:37;;;;;;;45.20;21.75;;;;;;;7.87;100.00;100656.81;5032974;28;20404;-75
2022/12/09 06:07:03;;;;;;;47.38;20.55;;;;;;;7.84;100.00;100648.97;5033378;28;20044;-75
2022/12/09 06:09:28;;;;;;;47.80;20.38;;;;;;;7.83;100.00;100643.75;5027904;28;20068;-75
2022/12/09 06:11:54;;;;;;;46.67;21.75;;;;;;;7.81;100.00;100646.22;5024149;28;20033;-76
2022/12/09 06:14:19;;;;;;;42.35;20.30;;;;;;;7.81;100.00;100664.22;5031628;28;20025;-74
2022/12/09 06:16:45;;;;;;;40.97;20.33;;;;;;;7.63;100.00;100624.72;5018368;28;20460;-82
2022/12/09 06:19:11;;;;;;;48.75;20.77;;;;;;;7.81;100.00;100659.06;5029085;28;20037;-81
2022/12/09 06:21:40;;;;;;;49.42;20.65;;;;;;;7.83;100.00;100667.75;5016155;28;20030;-77
2022/12/09 06:24:07;;;;;;;55.33;23.42;;;;;;;7.86;100.00;100659.31;5025264;28;20493;-77
2022/12/09 06:26:32;;;;;;;49.40;20.65;;;;;;;7.91;100.00;100666.47;5012454;28;20092;-80
2022/12/09 06:29:00;;;;;;;50.78;22.23;;;;;;;7.84;100.00;100659.25;5011154;28;20026;-81
2022/12/09 06:31:27;;;;;;;52.28;23.08;;;;;;;7.91;100.00;100668.16;5015281;28;20022;-81
2022/12/09 06:33:54;;;;;;;45.63;21.33;;;;;;;7.92;100.00;100672.47;5029210;28;20033;-81
2022/12/09 06:36:21;;;;;;;47.53;20.65;;;;;;;7.82;100.00;100659.97;5032340;28;20721;-79
2022/12/09 06:38:46;;;;;;;51.20;22.20;;;;;;;7.83;100.00;100669.47;5032255;28;20050;-80
2022/12/09 06:41:14;;;;;;;44.72;20.70;;;;;;;7.93;100.00;100675.13;5032582;28;20032;-76
2022/12/09 06:43:40;;;;;;;50.45;21.38;;;;;;;7.87;100.00;100667.09;5021442;28;20160;-77
2022/12/09 06:46:16;;;;;;;39.25;17.15;;;;;;;7.73;100.00;100662.97;5027215;28;20037;-77
2022/12/09 06:49:01;;;;;;;33.33;17.38;;;;;;;7.63;100.00;100664.16;5009758;28;20115;-75
2022/12/09 06:51:27;;;;;;;40.47;18.33;;;;;;;7.58;100.00;100656.22;5007519;28;20559;-76
2022/12/09 06:53:52;;;;;;;41.50;18.15;;;;;;;7.61;100.00;100661.53;5009175;28;20293;-75
2022/12/09 06:56:18;;;;;;;36.85;19.58;;;;;;;7.55;100.00;100643.22;5009343;28;20562;-76
2022/12/09 06:58:45;;;;;;;45.42;20.83;;;;;;;7.72;100.00;100669.78;5008870;28;20038;-78
2022/12/09 07:01:14;;;;;;;36.10;18.40;;;;;;;7.59;100.00;100654.53;5009403;28;20132;-76
2022/12/09 07:03:44;;;;;;;37.28;18.55;;;;;;;7.64;100.00;100652.19;5009829;28;20172;-74
2022/12/09 07:06:22;;;;;;;43.10;19.13;;;;;;;7.75;100.00;100654.53;5009591;28;20022;-77
2022/12/09 07:08:47;;;;;;;38.20;18.75;;;;;;;7.71;100.00;100651.72;5009572;28;20482;-77
2022/12/09 07:11:13;;;;;;;42.90;20.67;;;;;;;7.75;100.00;100653.63;5008613;28;20033;-77
2022/12/09 07:13:38;;;;;;;41.25;19.73;;;;;;;7.59;100.00;100628.84;5009540;28;20041;-74
2022/12/09 07:16:04;;;;;;;42.05;21.10;;;;;;;7.78;100.00;100671.78;5008127;28;20049;-75
2022/12/09 07:18:29;;;;;;;47.08;25.92;;;;;;;7.81;100.00;100674.50;5008909;28;20037;-75
2022/12/09 07:20:55;;;;;;;40.35;23.05;;;;;;;7.78;100.00;100664.06;5034192;28;20588;-74
2022/12/09 07:23:20;;;;;;;36.78;19.35;;;;;;;7.58;100.00;100630.50;5048829;28;20025;-75
2022/12/09 07:25:56;;;;;;;35.80;18.55;;;;;;;7.84;100.00;100664.38;5048552;28;20029;-75
2022/12/09 07:28:22;;;;;;;41.30;19.85;;;;;;;7.93;100.00;100664.84;5048966;28;20215;-78
2022/12/09 07:30:47;;;;;;;36.63;18.60;;;;;;;7.92;100.00;100667.34;5048672;28;20128;-74
2022/12/09 07:33:12;;;;;;;38.42;19.13;;;;;;;7.93;100.00;100669.97;5048733;28;20406;-75
2022/12/09 07:35:38;;;;;;;38.78;18.05;;;;;;;7.89;100.00;100680.06;5048569;28;20032;-75
2022/12/09 07:38:03;;;;;;;32.55;17.42;;;;;;;7.73;100.00;100642.41;5048950;28;20024;-75
2022/12/09 07:40:29;;;;;;;42.40;17.90;;;;;;;7.93;100.00;100690.56;5047881;28;20084;-75
2022/12/09 07:42:54;;;;;;;41.70;19.40;;;;;;;7.74;100.00;100646.75;5034996;28;20053;-77
2022/12/09 07:45:19;;;;;;;40.88;19.15;;;;;;;7.93;100.00;100689.69;5031950;28;20187;-77
2022/12/09 07:47:45;;;;;;;43.13;20.30;;;;;;;7.60;100.00;100635.72;5031632;28;20021;-76
2022/12/09 07:50:11;;;;;;;44.10;20.23;;;;;;;7.88;100.00;100670.56;5031644;28;20025;-77
2022/12/09 07:52:36;;;;;;;43.92;20.52;;;;;;;7.94;100.00;100681.16;5031115;28;20036;-77
2022/12/09 07:55:02;;;;;;;42.53;20.75;;;;;;;7.97;100.00;100683.00;5031678;28;20028;-76
2022/12/09 07:57:27;;;;;;;50.25;22.10;;;;;;;7.90;100.00;100677.56;5031203;28;20033;-75
2022/12/09 07:59:55;;;;;;;44.38;19.85;;;;;;;7.93;100.00;100690.56;5031529;28;20025;-77
2022/12/09 08:02:21;;;;;;;43.83;21.08;;;;;;;7.93;100.00;100684.53;5031187;28;20080;-77
2022/12/09 08:04:46;;;;;;;44.78;20.75;;;;;;;7.96;100.00;100668.38;5031294;28;20053;-76
2022/12/09 08:07:11;;;;;;;49.92;21.45;;;;;;;8.04;100.00;100693.69;5031263;28;20021;-74
2022/12/09 08:09:37;;;;;;;47.22;21.67;;;;;;;7.91;100.00;100655.28;5030863;28;20391;-77
2022/12/09 08:12:02;;;;;;;50.72;23.95;;;;;;;8.03;100.00;100680.75;5031314;28;20021;-77
2022/12/09 08:14:28;;;;;;;46.50;23.85;;;;;;;7.93;100.00;100662.28;5031008;28;20036;-77
2022/12/09 08:16:53;;;;;;;51.53;22.48;;;;;;;8.20;100.00;100703.06;5030804;28;20029;-77
2022/12/09 08:19:19;;;;;;;51.00;22.20;;;;;;;8.23;100.00;100694.59;5031259;28;20512;-76
2022/12/09 08:21:44;;;;;;;52.75;24.23;;;;;;;8.13;100.00;100662.41;5028145;28;20044;-76
2022/12/09 08:24:10;;;;;;;45.88;22.08;;;;;;;8.22;100.00;100688.59;5030991;28;20029;-75
2022/12/09 08:26:37;;;;;;;44.20;20.25;;;;;;;8.28;100.00;100697.41;5031012;28;20108;-76
2022/12/09 08:29:08;;;;;;;46.03;20.77;;;;;;;8.29;100.00;100694.00;5031006;28;20033;-76
2022/12/09 08:31:33;;;;;;;45.60;21.42;;;;;;;8.24;100.00;100689.53;5030852;28;20021;-76
2022/12/09 08:34:02;;;;;;;50.22;22.30;;;;;;;8.34;100.00;100693.44;5030952;28;20021;-76
2022/12/09 08:36:27;;;;;;;48.00;21.98;;;;;;;8.42;100.00;100701.53;5031044;28;20025;-76
2022/12/09 08:38:53;;;;;;;46.70;21.45;;;;;;;8.44;100.00;100707.66;5030465;28;20084;-76
2022/12/09 08:41:35;;;;;;;49.50;21.50;;;;;;;8.47;100.00;100705.25;5030422;28;20029;-76
2022/12/09 08:44:15;;;;;;;53.08;21.98;;;;;;;8.38;100.00;100697.06;5030535;28;20056;-76
2022/12/09 08:46:44;;;;;;;53.38;24.05;;;;;;;8.35;100.00;100699.47;5030597;28;20052;-76
2022/12/09 08:49:11;;;;;;;52.47;24.33;;;;;;;8.07;100.00;100669.81;5030400;28;20052;-76
2022/12/09 08:51:37;;;;;;;55.95;23.85;;;;;;;8.16;100.00;100697.66;5030708;28;20480;-76
2022/12/09 08:54:03;;;;;;;49.80;23.55;;;;;;;8.18;100.00;100696.06;5030666;28;20037;-76
2022/12/09 08:56:29;;;;;;;52.13;23.85;;;;;;;8.23;100.00;100699.75;5030593;28;20052;-76
2022/12/09 08:58:55;;;;;;;54.42;23.80;;;;;;;8.18;100.00;100696.94;5030557;28;20491;-78
2022/12/09 09:01:31;;;;;;;53.83;23.92;;;;;;;8.10;100.00;100693.13;5029989;28;20025;-76
2022/12/09 09:03:57;;;;;;;55.97;23.90;;;;;;;8.07;100.00;100683.56;5028812;28;20099;-78
2022/12/09 09:06:22;;;;;;;58.67;23.05;;;;;;;8.13;100.00;100682.09;5030302;28;20029;-76
2022/12/09 09:08:48;;;;;;;53.53;24.38;;;;;;;8.17;100.00;100684.88;5030430;28;20033;-76
2022/12/09 09:11:16;;;;;;;53.40;23.63;;;;;;;8.03;100.00;100634.47;5030585;28;20029;-75
2022/12/09 09:13:43;;;;;;;52.67;24.00;;;;;;;8.33;100.00;100665.94;5030406;28;20091;-76
2022/12/09 09:16:18;;;;;;;59.65;23.17;;;;;;;8.32;100.00;100658.16;5030135;28;20044;-76
2022/12/09 09:18:44;;;;;;;58.85;25.52;;;;;;;8.37;100.00;100651.56;5030445;28;20043;-74
2022/12/09 09:21:12;;;;;;;53.45;25.38;;;;;;;8.38;100.00;100656.75;5030526;28;20473;-75
2022/12/09 09:23:39;;;;;;;49.55;23.25;;;;;;;8.21;100.00;100622.53;5030236;28;20468;-75
2022/12/09 09:26:29;;;;;;;59.42;26.77;;;;;;;8.47;100.00;100637.47;5028684;28;20471;-74
2022/12/09 09:28:55;;;;;;;;;;;;;;;8.57;100.00;100638.00;5030811;28;20121;-74
2022/12/09 09:31:23;;;;;;;43.00;21.05;;;;;;;8.60;100.00;100631.22;5030230;28;20327;-74
2022/12/09 09:33:49;;;;;;;54.53;25.08;;;;;;;8.53;100.00;100625.78;5031604;28;20039;-73
2022/12/09 09:36:21;;;;;;;48.92;22.15;;;;;;;8.41;100.00;100612.28;5033529;28;20033;-74
2022/12/09 09:38:52;;;;;;;51.60;25.73;;;;;;;8.62;100.00;100624.47;5032265;28;20045;-75
2022/12/09 09:41:41;;;;;;;55.42;23.92;;;;;;;8.69;100.00;100619.66;5032223;28;20103;-75
2022/12/09 09:44:48;;;;;;;54.40;24.15;;;;;;;8.67;100.00;100611.00;5032351;28;20029;-75
2022/12/09 09:47:35;;;;;;;58.00;24.10;;;;;;;8.66;100.00;100613.50;5030698;28;20049;-75
2022/12/09 09:50:03;;;;;;;55.53;25.00;;;;;;;8.71;100.00;100612.91;5031474;28;20491;-78
2022/12/09 09:52:29;;;;;;;55.67;24.73;;;;;;;8.73;100.00;100602.69;5032222;28;20033;-75
2022/12/09 09:54:56;;;;;;;52.80;23.88;;;;;;;8.77;100.00;100617.44;5032361;28;20021;-77
2022/12/09 09:57:40;;;;;;;47.88;22.80;;;;;;;8.80;100.00;100606.41;5032161;28;20108;-77
2022/12/09 10:00:12;;;;;;;60.05;24.75;;;;;;;8.63;100.00;100579.91;5032244;28;20120;-78
2022/12/09 10:03:00;;;;;;;57.08;26.75;;;;;;;8.88;100.00;100593.09;5029678;28;20029;-77
2022/12/09 10:05:32;;;;;;;64.78;30.85;;;;;;;8.90;100.00;100590.59;5031298;28;20125;-78
2022/12/09 10:08:16;;;;;;;77.95;37.47;;;;;;;8.94;100.00;100595.06;5031865;28;20108;-77
2022/12/09 10:11:06;;;;;;;68.53;30.85;;;;;;;8.89;100.00;100583.69;5030198;28;20512;-77
2022/12/09 10:13:43;;;;;;;61.42;27.35;;;;;;;8.83;100.00;100580.81;5029323;28;20506;-77
2022/12/09 10:16:16;;;;;;;56.95;28.52;;;;;;;8.82;100.00;100579.97;5061683;28;20111;-74
2022/12/09 10:18:51;;;;;;;70.00;29.92;;;;;;;8.85;100.00;100581.78;5031557;28;20033;-76
2022/12/09 10:21:18;;;;;;;79.45;30.25;;;;;;;8.83;100.00;100579.13;5031382;28;20750;-76
2022/12/09 10:23:45;;;;;;;61.33;26.38;;;;;;;8.89;100.00;100571.66;5031207;28;20479;-74
2022/12/09 10:26:18;;;;;;;61.90;27.65;;;;;;;8.96;100.00;100567.69;5030668;28;20029;-78
2022/12/09 10:28:48;;;;;;;52.80;25.05;;;;;;;9.05;100.00;100572.38;5031085;28;20029;-78
2022/12/09 10:31:13;;;;;;;;;;;;;;;9.00;100.00;100567.00;5030299;28;20030;-78
2022/12/09 10:33:39;;;;;;;53.70;24.10;;;;;;;9.03;100.00;100572.31;5032325;28;19924;-73
2022/12/09 10:36:18;;;;;;;53.33;25.95;;;;;;;8.64;100.00;100525.06;5031940;28;20064;-75
2022/12/09 10:38:44;;;;;;;56.85;25.48;;;;;;;8.82;100.00;100550.75;5032668;28;20049;-75
2022/12/09 10:44:25;;;;;;;48.13;23.70;;;;;;;8.87;100.00;100552.72;5032699;28;20466;-74
2022/12/09 10:47:06;;;;;;;50.95;22.95;;;;;;;8.77;100.00;100518.75;5032275;28;20065;-74
2022/12/09 10:49:34;;;;;;;50.13;24.70;;;;;;;9.01;100.00;100540.47;5032695;28;20048;-73
2022/12/09 10:52:00;;;;;;;56.50;23.95;;;;;;;9.03;100.00;100544.00;5032934;28;20115;-76
2022/12/09 10:54:33;;;;;;;48.63;24.15;;;;;;;9.00;100.00;100532.69;5032743;28;20057;-76
2022/12/09 10:57:00;;;;;;;43.70;22.48;;;;;;;9.00;100.00;100524.94;5032533;28;20029;-75
2022/12/09 10:59:30;;;;;;;62.78;26.98;;;;;;;8.92;100.00;100521.13;5032657;28;20112;-75
2022/12/09 11:02:20;;;;;;;61.05;27.10;;;;;;;8.99;100.00;100525.75;5032660;28;20029;-75
2022/12/09 11:04:46;;;;;;;;;;;;;;;8.98;100.00;100516.25;5032558;28;20045;-75
2022/12/09 11:07:11;;;;;;;56.17;24.38;;;;;;;8.90;100.00;100521.94;5032352;28;19913;-75
2022/12/09 11:09:38;;;;;;;54.70;23.80;;;;;;;9.00;100.00;100502.63;5032138;28;20033;-75
2022/12/09 11:12:12;;;;;;;50.40;25.90;;;;;;;9.03;100.00;100491.59;5032513;28;20052;-75
2022/12/09 11:14:49;;;;;;;53.10;24.10;;;;;;;9.07;100.00;100485.75;5031902;28;20539;-75
2022/12/09 11:17:24;;;;;;;57.55;24.25;;;;;;;9.10;100.00;100478.16;5032268;28;20068;-76
2022/12/09 11:19:52;;;;;;;52.03;22.83;;;;;;;9.14;100.00;100495.50;5031946;28;20021;-72